createdAt,value
2024-02-01T00:06:42.538Z,-2.50
2024-02-01T00:21:44.808Z,-2.60
2024-02-01T00:36:46.887Z,-2.60
2024-02-01T00:51:49.050Z,-2.50
2024-02-01T01:06:51.399Z,-2.60
2024-02-01T01:21:53.385Z,-2.80
2024-02-01T01:36:56.104Z,-2.80
2024-02-01T01:51:58.583Z,-2.80
2024-02-01T02:07:01.640Z,-2.90
2024-02-01T02:22:05.409Z,-2.80
2024-02-01T02:37:10.185Z,-2.70
2024-02-01T02:52:13.040Z,-2.60
2024-02-01T03:07:15.537Z,-2.70
2024-02-01T03:22:27.026Z,-2.50
2024-02-01T03:37:30.227Z,-2.70
2024-02-01T03:52:32.256Z,-2.60
2024-02-01T04:07:41.184Z,-2.70
2024-02-01T04:22:44.180Z,-2.60
2024-02-01T04:37:47.315Z,-2.60
2024-02-01T04:52:49.461Z,-2.70
2024-02-01T05:07:51.632Z,-2.80
2024-02-01T05:22:53.676Z,-2.70
2024-02-01T05:37:58.094Z,-3.00
2024-02-01T05:53:00.311Z,-3.00
2024-02-01T06:08:03.271Z,-2.80
2024-02-01T06:23:05.526Z,-3.00
2024-02-01T06:38:19.066Z,-3.00
2024-02-01T06:53:22.234Z,-3.10
2024-02-01T07:08:46.506Z,-2.70
2024-02-01T07:23:58.739Z,-2.00
2024-02-01T07:39:19.504Z,-1.30
2024-02-01T07:54:40.489Z,-0.80
2024-02-01T08:09:42.501Z,-0.50
2024-02-01T08:24:46.247Z,0.20
2024-02-01T08:39:48.298Z,0.30
2024-02-01T08:54:50.995Z,0.60
2024-02-01T09:09:53.644Z,0.80
2024-02-01T09:24:56.379Z,0.80
2024-02-01T09:40:01.737Z,1.10
2024-02-01T09:55:04.378Z,1.30
2024-02-01T10:10:07.644Z,1.50
2024-02-01T10:25:10.843Z,1.70
2024-02-01T10:40:15.628Z,2.00
2024-02-01T10:55:18.802Z,2.20
2024-02-01T11:10:24.727Z,2.30
2024-02-01T11:25:30.276Z,2.50
2024-02-01T11:40:33.776Z,3.10
2024-02-01T11:55:36.132Z,3.40
2024-02-01T12:10:39.596Z,3.50
2024-02-01T12:25:49.195Z,3.80
2024-02-01T12:40:51.613Z,3.70
2024-02-01T12:55:54.102Z,3.70
2024-02-01T13:10:57.186Z,3.90
2024-02-01T13:25:59.454Z,3.80
2024-02-01T13:41:02.128Z,3.80
2024-02-01T13:56:04.683Z,3.80
2024-02-01T14:11:06.851Z,3.90
2024-02-01T14:26:10.064Z,3.70
2024-02-01T14:41:12.169Z,3.50
2024-02-01T14:56:14.115Z,3.40
2024-02-01T15:11:18.803Z,3.30
2024-02-01T15:26:20.825Z,3.50
2024-02-01T15:41:23.001Z,3.50
2024-02-01T15:56:25.105Z,3.40
2024-02-01T16:11:37.107Z,3.00
2024-02-01T16:26:41.048Z,2.80
2024-02-01T16:41:43.757Z,2.40
2024-02-01T16:56:46.138Z,2.30
2024-02-01T17:11:52.271Z,1.90
2024-02-01T17:26:55.143Z,1.70
2024-02-01T17:42:02.811Z,1.60
2024-02-01T17:57:13.167Z,1.50
2024-02-01T18:12:26.110Z,1.30
2024-02-01T18:27:28.505Z,1.10
2024-02-01T18:42:58.039Z,0.90
2024-02-01T18:58:00.125Z,0.90
2024-02-01T19:13:02.268Z,0.70
2024-02-01T19:28:05.368Z,0.70
2024-02-01T19:43:07.823Z,0.70
2024-02-01T19:58:11.141Z,1.10
2024-02-01T20:13:13.372Z,1.00
2024-02-01T20:28:46.550Z,0.70
2024-02-01T20:43:49.912Z,0.60
2024-02-01T20:58:54.732Z,0.50
2024-02-01T21:13:57.443Z,0.40
2024-02-01T21:29:03.475Z,0.40
2024-02-01T21:44:06.199Z,0.30
2024-02-01T21:59:12.715Z,0.30
2024-02-01T22:14:15.184Z,0.40
2024-02-01T22:29:17.777Z,0.10
2024-02-01T22:44:20.714Z,0.20
2024-02-01T22:59:23.244Z,0.30
2024-02-01T23:14:25.395Z,0.00
2024-02-01T23:29:27.609Z,0.10
2024-02-01T23:44:29.677Z,0.20
2024-02-01T23:59:32.484Z,0.30
